Time;durP1;ratioP1;P1;durP2;ratioP2;P2;SDS_P1;SDS_P2;PMS_P1;PMS_P2;Temp;Humidity;BMP_temperature;BMP_pressure;BME280_temperature;BME280_humidity;BME280_pressure;Samples;Min_cycle;Max_cycle;Signal;HPM_P1;HPM_P2
2023/03/14 00:00:09;;;;;;;;;;;;;;;11.31;100.00;96311.19;5103539;27;20017;-64
2023/03/14 00:02:36;;;;;;;;;;;;;;;11.29;100.00;96313.38;5132536;27;19927;-65
2023/03/14 00:05:06;;;;;;;;;;;;;;;11.34;100.00;96307.91;5096835;28;19995;-66
2023/03/14 00:07:34;;;;;;;;;;;;;;;11.37;100.00;96310.75;5115889;28;19931;-64
2023/03/14 00:10:01;;;;;;;;;;;;;;;11.40;100.00;96293.31;5117767;28;19970;-65
2023/03/14 00:12:29;;;;;;;;;;;;;;;11.47;100.00;96293.66;5120971;28;19924;-65
2023/03/14 00:14:56;;;;;;;;;;;;;;;11.45;100.00;96293.16;5106053;28;19946;-65
2023/03/14 00:17:22;;;;;;;;;;;;;;;11.52;100.00;96282.03;5124133;28;19928;-65
2023/03/14 00:19:52;;;;;;;;;;;;;;;11.57;100.00;96269.34;5121133;28;19931;-65
2023/03/14 00:22:18;;;;;;;;;;;;;;;11.51;100.00;96280.47;5102415;28;20008;-64
2023/03/14 00:24:44;;;;;;;;;;;;;;;11.51;100.00;96267.91;5119245;28;19974;-64
2023/03/14 00:27:11;;;;;;;;;;;;;;;11.45;100.00;96250.41;5120294;28;20023;-64
2023/03/14 00:29:38;;;;;;;;;;;;;;;11.30;100.00;96245.47;5121841;28;19920;-64
2023/03/14 00:32:05;;;;;;;;;;;;;;;11.27;100.00;96259.44;5113638;28;19980;-64
2023/03/14 00:34:31;;;;;;;;;;;;;;;11.31;100.00;96305.84;5120891;28;19943;-64
2023/03/14 00:36:58;;;;;;;;;;;;;;;11.36;100.00;96309.16;5124009;28;19928;-65
2023/03/14 00:39:24;;;;;;;;;;;;;;;11.37;100.00;96293.94;5122795;28;19970;-63
2023/03/14 00:41:50;;;;;;;;;;;;;;;11.37;100.00;96310.75;5118741;28;19946;-65
2023/03/14 00:44:17;;;;;;;;;;;;;;;11.42;100.00;96336.53;5118603;28;20083;-65
2023/03/14 00:46:44;;;;;;;;;;;;;;;11.47;100.00;96339.09;5120605;28;19983;-65
2023/03/14 00:49:11;;;;;;;;;;;;;;;11.50;100.00;96343.03;5116650;28;19960;-65
2023/03/14 00:51:37;;;;;;;;;;;;;;;11.50;100.00;96340.38;5121213;28;19956;-64
2023/03/14 00:54:03;;;;;;;;;;;;;;;11.50;100.00;96333.16;5123088;28;19931;-63
2023/03/14 00:56:31;;;;;;;;;;;;;;;11.49;100.00;96336.91;5122561;28;20106;-65
2023/03/14 00:58:57;;;;;;;;;;;;;;;11.41;100.00;96336.88;5119350;28;19989;-65
2023/03/14 01:01:24;;;;;;;;;;;;;;;11.49;100.00;96346.81;5134511;27;19923;-64
2023/03/14 01:03:53;;;;;;;;;;;;;;;11.47;100.00;96349.81;5119584;28;19928;-64
2023/03/14 01:06:20;;;;;;;;;;;;;;;11.46;100.00;96366.91;5119400;28;19932;-64
2023/03/14 01:08:47;;;;;;;;;;;;;;;11.47;100.00;96351.69;5122289;28;19996;-65
2023/03/14 01:11:15;;;;;;;;;;;;;;;11.43;100.00;96351.50;5122626;28;20024;-64
2023/03/14 01:13:41;;;;;;;;;;;;;;;11.32;100.00;96334.16;5121073;28;19959;-64
2023/03/14 01:16:09;;;;;;;;;;;;;;;11.24;100.00;96332.19;5119281;28;19987;-64
2023/03/14 01:18:35;;;;;;;;;;;;;;;11.34;100.00;96348.78;5120189;28;19951;-64
2023/03/14 01:21:03;;;;;;;;;;;;;;;11.38;100.00;96338.28;5122585;28;19924;-64
2023/03/14 01:23:30;;;;;;;;;;;;;;;11.33;100.00;96327.69;5122014;28;20018;-64
2023/03/14 01:25:56;;;;;;;;;;;;;;;11.34;100.00;96316.72;5118929;28;19920;-64
2023/03/14 01:28:22;;;;;;;;;;;;;;;11.36;100.00;96313.72;5118958;28;19963;-64
2023/03/14 01:30:49;;;;;;;;;;;;;;;11.32;100.00;96329.59;5117323;28;19983;-64
2023/03/14 01:33:15;;;;;;;;;;;;;;;11.36;100.00;96308.38;5122619;28;20292;-64
2023/03/14 01:35:41;;;;;;;;;;;;;;;11.44;100.00;96320.22;5120061;28;20014;-63
2023/03/14 01:38:09;;;;;;;;;;;;;;;11.53;100.00;96308.47;5118728;28;19955;-64
2023/03/14 01:40:42;;;;;;;;;;;;;;;11.46;100.00;96321.47;5119982;28;19983;-63
2023/03/14 01:43:14;;;;;;;;;;;;;;;11.49;100.00;96328.88;5122177;28;19954;-64
2023/03/14 01:46:13;;;;;;;;;;;;;;;11.50;100.00;96337.69;5120294;28;19979;-64
2023/03/14 01:48:41;;;;;;;;;;;;;;;11.34;100.00;96332.75;5120348;28;19924;-64
2023/03/14 01:51:10;;;;;;;;;;;;;;;11.38;100.00;96330.25;5122041;28;19990;-64
2023/03/14 01:53:39;;;;;;;;;;;;;;;11.37;100.00;96329.47;5120834;28;19923;-64
2023/03/14 01:56:06;;;;;;;;;;;;;;;11.27;100.00;96320.91;5118627;28;19960;-64
2023/03/14 01:58:34;;;;;;;;;;;;;;;11.26;100.00;96325.44;5118834;28;19924;-64
2023/03/14 02:01:02;;;;;;;;;;;;;;;11.34;100.00;96313.25;5135730;27;19931;-64
2023/03/14 02:03:30;;;;;;;;;;;;;;;11.27;100.00;96318.22;5121840;28;19962;-64
2023/03/14 02:06:01;;;;;;;;;;;;;;;11.20;100.00;96310.63;5118524;28;19992;-64
2023/03/14 02:08:28;;;;;;;;;;;;;;;11.29;100.00;96305.38;5118497;28;19988;-63
2023/03/14 02:10:56;;;;;;;;;;;;;;;11.28;100.00;96290.41;5121832;28;19959;-63
2023/03/14 02:13:22;;;;;;;;;;;;;;;11.27;100.00;96283.50;5122066;28;19951;-64
2023/03/14 02:15:49;;;;;;;;;;;;;;;11.28;100.00;96275.19;5118775;28;19934;-64
2023/03/14 02:18:16;;;;;;;;;;;;;;;11.24;100.00;96262.72;5118149;28;19971;-64
2023/03/14 02:20:46;;;;;;;;;;;;;;;11.23;100.00;96261.16;5120500;28;19930;-64
2023/03/14 02:23:15;;;;;;;;;;;;;;;11.13;100.00;96256.88;5121779;28;19928;-64
2023/03/14 02:25:45;;;;;;;;;;;;;;;11.15;100.00;96238.63;5119532;28;19951;-64
2023/03/14 02:28:13;;;;;;;;;;;;;;;11.04;100.00;96221.31;5100046;28;19963;-64
2023/03/14 02:30:39;;;;;;;;;;;;;;;11.04;100.00;96221.31;5133689;28;19970;-64
2023/03/14 02:33:07;;;;;;;;;;;;;;;11.04;100.00;96220.53;5121597;28;19938;-64
2023/03/14 02:35:36;;;;;;;;;;;;;;;10.95;100.00;96203.66;5120770;28;19970;-64
2023/03/14 02:38:08;;;;;;;;;;;;;;;10.92;100.00;96217.63;5118184;28;19924;-64
2023/03/14 02:40:34;;;;;;;;;;;;;;;10.95;100.00;96217.00;5119054;28;19963;-64
2023/03/14 02:43:00;;;;;;;;;;;;;;;10.90;100.00;96201.91;5103489;28;19924;-64
2023/03/14 02:45:34;;;;;;;;;;;;;;;10.98;100.00;96192.38;5121646;28;19924;-64
2023/03/14 02:48:02;;;;;;;;;;;;;;;11.03;100.00;96197.56;5109552;28;19924;-64
2023/03/14 02:50:33;;;;;;;;;;;;;;;10.97;100.00;96180.09;5109714;28;19963;-64
2023/03/14 02:52:59;;;;;;;;;;;;;;;10.98;100.00;96173.66;5109282;28;20058;-63
2023/03/14 02:55:26;;;;;;;;;;;;;;;10.96;100.00;96181.97;5109541;28;19996;-64
2023/03/14 02:57:53;;;;;;;;;;;;;;;10.92;100.00;96169.56;5109143;28;19928;-63
2023/03/14 03:00:20;;;;;;;;;;;;;;;10.95;100.00;96176.97;5120875;28;19923;-64
2023/03/14 03:02:47;;;;;;;;;;;;;;;10.95;100.00;96175.06;5122237;28;19963;-64
2023/03/14 03:05:14;;;;;;;;;;;;;;;10.94;100.00;96172.69;5121242;28;19955;-64
2023/03/14 03:07:40;;;;;;;;;;;;;;;10.96;100.00;96214.03;5119305;28;19935;-63
2023/03/14 03:10:07;;;;;;;;;;;;;;;10.95;100.00;96230.38;5118499;28;19987;-65
2023/03/14 03:12:33;;;;;;;;;;;;;;;10.96;100.00;96243.41;5122359;28;19984;-64
2023/03/14 03:15:00;;;;;;;;;;;;;;;10.97;100.00;96244.19;5125048;28;19959;-64
2023/03/14 03:17:26;;;;;;;;;;;;;;;11.06;100.00;96245.03;5106743;28;19999;-64
2023/03/14 03:19:54;;;;;;;;;;;;;;;11.12;100.00;96249.16;5113076;28;19987;-64
2023/03/14 03:22:20;;;;;;;;;;;;;;;11.16;100.00;96247.44;5113006;28;19931;-64
2023/03/14 03:24:46;;;;;;;;;;;;;;;11.12;100.00;96262.50;5112842;28;19959;-64
2023/03/14 03:27:12;;;;;;;;;;;;;;;11.20;100.00;96264.44;5112948;28;19995;-64
2023/03/14 03:29:39;;;;;;;;;;;;;;;11.16;100.00;96272.28;5112952;28;19930;-64
2023/03/14 03:32:05;;;;;;;;;;;;;;;11.18;100.00;96263.94;5134389;27;19967;-64
2023/03/14 03:34:31;;;;;;;;;;;;;;;11.23;100.00;96274.53;5103701;28;19991;-64
2023/03/14 03:36:59;;;;;;;;;;;;;;;11.19;100.00;96268.22;5124688;28;19991;-64
2023/03/14 03:39:26;;;;;;;;;;;;;;;11.14;100.00;96268.34;5124794;28;19963;-65
2023/03/14 03:41:52;;;;;;;;;;;;;;;11.20;100.00;96270.56;5121309;28;19956;-65
2023/03/14 03:44:18;;;;;;;;;;;;;;;11.11;100.00;96264.38;5121357;28;19955;-65
2023/03/14 03:46:45;;;;;;;;;;;;;;;11.10;100.00;96254.00;5123494;28;19966;-65
2023/03/14 03:49:11;;;;;;;;;;;;;;;11.11;100.00;96258.28;5124375;28;19939;-64
2023/03/14 03:51:37;;;;;;;;;;;;;;;11.15;100.00;96246.66;5122934;28;19967;-64
2023/03/14 03:54:05;;;;;;;;;;;;;;;11.07;100.00;96238.59;5120770;28;19924;-64
2023/03/14 03:56:31;;;;;;;;;;;;;;;11.15;100.00;96235.19;5103204;28;19931;-64
2023/03/14 03:58:58;;;;;;;;;;;;;;;11.07;100.00;96235.94;5124240;28;19923;-64
2023/03/14 04:01:24;;;;;;;;;;;;;;;11.08;100.00;96224.16;5138060;27;19924;-64
2023/03/14 04:03:50;;;;;;;;;;;;;;;11.04;100.00;96223.97;5121019;28;19931;-64
2023/03/14 04:06:17;;;;;;;;;;;;;;;11.03;100.00;96225.06;5120561;28;19920;-64
2023/03/14 04:08:44;;;;;;;;;;;;;;;11.06;100.00;96231.66;5122726;28;19999;-64
2023/03/14 04:11:11;;;;;;;;;;;;;;;11.09;100.00;96231.06;5123939;28;19947;-64
2023/03/14 04:13:38;;;;;;;;;;;;;;;11.03;100.00;96229.63;5122587;28;19989;-64
2023/03/14 04:16:04;;;;;;;;;;;;;;;11.09;100.00;96215.03;5120427;28;19991;-64
2023/03/14 04:18:31;;;;;;;;;;;;;;;11.08;100.00;96205.47;5102816;28;19923;-64
2023/03/14 04:20:58;;;;;;;;;;;;;;;11.07;100.00;96204.66;5123253;28;20030;-64
2023/03/14 04:23:25;;;;;;;;;;;;;;;11.04;100.00;96207.16;5123763;28;19951;-64
2023/03/14 04:25:51;;;;;;;;;;;;;;;11.08;100.00;96205.47;5120187;28;19985;-64
2023/03/14 04:28:19;;;;;;;;;;;;;;;11.10;100.00;96193.38;5120201;28;19931;-64
2023/03/14 04:30:45;;;;;;;;;;;;;;;11.08;100.00;96194.78;5136523;27;20034;-64
2023/03/14 04:33:14;;;;;;;;;;;;;;;11.16;100.00;96186.00;5123410;28;20654;-64
2023/03/14 04:35:40;;;;;;;;;;;;;;;11.10;100.00;96188.03;5121633;28;19927;-64
2023/03/14 04:38:06;;;;;;;;;;;;;;;11.01;100.00;96179.19;5120081;28;20538;-64
2023/03/14 04:40:33;;;;;;;;;;;;;;;10.83;100.00;96175.63;5120822;28;19974;-64
2023/03/14 04:42:59;;;;;;;;;;;;;;;10.81;100.00;96169.03;5123330;28;19930;-64
2023/03/14 04:45:27;;;;;;;;;;;;;;;10.76;100.00;96177.16;5123342;28;19923;-64
2023/03/14 04:47:53;;;;;;;;;;;;;;;10.77;100.00;96181.41;5119692;28;19952;-64
2023/03/14 04:50:20;;;;;;;;;;;;;;;10.77;100.00;96182.19;5119722;28;19939;-64
2023/03/14 04:52:46;;;;;;;;;;;;;;;10.71;100.00;96170.06;5122265;28;20000;-64
2023/03/14 04:55:12;;;;;;;;;;;;;;;10.66;100.00;96164.88;5123111;28;20018;-64
2023/03/14 04:57:39;;;;;;;;;;;;;;;10.62;100.00;96166.56;5121272;28;19927;-64
2023/03/14 05:00:07;;;;;;;;;;;;;;;10.76;100.00;96177.97;5127112;27;19930;-64
2023/03/14 05:02:35;;;;;;;;;;;;;;;10.86;100.00;96184.13;5125632;27;19983;-64
2023/03/14 05:05:01;;;;;;;;;;;;;;;10.89;100.00;96173.63;5122913;28;20014;-64
2023/03/14 05:07:27;;;;;;;;;;;;;;;10.92;100.00;96167.69;5122872;28;19923;-64
2023/03/14 05:09:54;;;;;;;;;;;;;;;10.86;100.00;96173.44;5119171;28;19974;-64
2023/03/14 05:12:20;;;;;;;;;;;;;;;10.92;100.00;96178.38;5119250;28;20435;-64
2023/03/14 05:14:47;;;;;;;;;;;;;;;11.00;100.00;96176.81;5122039;28;19981;-64
2023/03/14 05:17:14;;;;;;;;;;;;;;;11.00;100.00;96174.13;5122853;28;20008;-64
2023/03/14 05:19:42;;;;;;;;;;;;;;;10.99;100.00;96159.19;5102993;28;19945;-64
2023/03/14 05:22:08;;;;;;;;;;;;;;;10.90;100.00;96171.72;5119219;28;20662;-64
2023/03/14 05:24:34;;;;;;;;;;;;;;;10.90;100.00;96167.19;5120027;28;20027;-64
2023/03/14 05:27:01;;;;;;;;;;;;;;;10.96;100.00;96168.63;5122356;28;19979;-64
2023/03/14 05:29:27;;;;;;;;;;;;;;;11.04;100.00;96172.44;5122534;28;19959;-64
2023/03/14 05:31:53;;;;;;;;;;;;;;;11.07;100.00;96172.63;5132613;27;20637;-64
2023/03/14 05:34:19;;;;;;;;;;;;;;;10.97;100.00;96169.41;5118500;28;20007;-64
2023/03/14 05:36:47;;;;;;;;;;;;;;;10.87;100.00;96164.31;5121420;28;19931;-64
2023/03/14 05:39:14;;;;;;;;;;;;;;;10.90;100.00;96167.19;5122296;28;19983;-64
2023/03/14 05:41:40;;;;;;;;;;;;;;;10.98;100.00;96153.09;5120353;28;19951;-64
2023/03/14 05:44:06;;;;;;;;;;;;;;;10.94;100.00;96149.47;5118720;28;19955;-64
2023/03/14 05:46:33;;;;;;;;;;;;;;;10.93;100.00;96133.72;5119378;28;20046;-64
2023/03/14 05:48:59;;;;;;;;;;;;;;;11.01;100.00;96147.13;5122057;28;19999;-64
2023/03/14 05:51:26;;;;;;;;;;;;;;;11.02;100.00;96140.69;5122271;28;19974;-64
2023/03/14 05:53:54;;;;;;;;;;;;;;;11.01;100.00;96160.50;5110095;28;20014;-64
2023/03/14 05:56:20;;;;;;;;;;;;;;;10.95;100.00;96155.59;5110189;28;19958;-64
2023/03/14 05:58:47;;;;;;;;;;;;;;;11.04;100.00;96156.41;5110073;28;19955;-64
2023/03/14 06:01:13;;;;;;;;;;;;;;;11.10;100.00;96155.19;5110396;28;20028;-64
2023/03/14 06:03:39;;;;;;;;;;;;;;;11.04;100.00;96153.75;5120226;28;19931;-64
2023/03/14 06:06:06;;;;;;;;;;;;;;;10.94;100.00;96162.81;5121977;28;19945;-64
2023/03/14 06:08:34;;;;;;;;;;;;;;;10.97;100.00;96159.53;5121126;28;19955;-64
2023/03/14 06:11:03;;;;;;;;;;;;;;;10.98;100.00;96158.44;5118460;28;19928;-64
2023/03/14 06:13:29;;;;;;;;;;;;;;;10.98;100.00;96147.75;5118845;28;20381;-63
2023/03/14 06:15:56;;;;;;;;;;;;;;;11.02;100.00;96151.38;5121731;28;19996;-63
2023/03/14 06:18:22;;;;;;;;;;;;;;;11.00;100.00;96150.09;5121900;28;19955;-63
2023/03/14 06:20:48;;;;;;;;;;;;;;;10.84;100.00;96142.50;5119071;28;19939;-63
2023/03/14 06:23:15;;;;;;;;;;;;;;;10.84;100.00;96152.38;5118312;28;19987;-64
2023/03/14 06:25:41;;;;;;;;;;;;;;;10.83;100.00;96159.59;5120191;28;19963;-64
2023/03/14 06:28:09;;;;;;;;;;;;;;;10.75;100.00;96157.69;5122017;28;19987;-64
2023/03/14 06:30:35;;;;;;;;;;;;;;;10.79;100.00;96150.66;5128889;27;19962;-64
2023/03/14 06:33:01;;;;;;;;;;;;;;;10.69;100.00;96145.56;5121595;28;19955;-64
2023/03/14 06:35:28;;;;;;;;;;;;;;;10.70;100.00;96147.16;5121622;28;19983;-64
2023/03/14 06:37:54;;;;;;;;;;;;;;;10.69;100.00;96150.91;5118023;28;19991;-63
2023/03/14 06:40:21;;;;;;;;;;;;;;;10.75;100.00;96155.00;5118093;28;19928;-63
2023/03/14 06:42:47;;;;;;;;;;;;;;;10.76;100.00;96145.94;5120782;28;19950;-63
2023/03/14 06:45:15;;;;;;;;;;;;;;;10.75;100.00;96140.88;5124899;28;19927;-63
2023/03/14 06:47:41;;;;;;;;;;;;;;;10.78;100.00;96143.72;5105678;28;20007;-63
2023/03/14 06:50:09;;;;;;;;;;;;;;;10.82;100.00;96135.91;5103933;28;19980;-63
2023/03/14 06:52:36;;;;;;;;;;;;;;;10.76;100.00;96135.25;5123091;28;19967;-64
2023/03/14 06:55:02;;;;;;;;;;;;;;;10.75;100.00;96144.34;5125362;28;19954;-64
2023/03/14 06:57:29;;;;;;;;;;;;;;;10.68;100.00;96143.19;5106919;28;19920;-64
2023/03/14 06:59:55;;;;;;;;;;;;;;;10.70;100.00;96136.47;5126725;27;19963;-65
2023/03/14 07:02:23;;;;;;;;;;;;;;;10.66;100.00;96143.50;5130832;27;19928;-65
2023/03/14 07:04:49;;;;;;;;;;;;;;;10.71;100.00;96140.69;5125106;28;19971;-64
2023/03/14 07:07:16;;;;;;;;;;;;;;;10.63;100.00;96130.78;5125182;28;19979;-64
2023/03/14 07:09:42;;;;;;;;;;;;;;;10.72;100.00;96128.94;5123083;28;19932;-64
2023/03/14 07:12:09;;;;;;;;;;;;;;;10.69;100.00;96132.22;5121498;28;19955;-64
2023/03/14 07:14:35;;;;;;;;;;;;;;;10.80;100.00;96128.19;5122181;28;19989;-64
2023/03/14 07:17:01;;;;;;;;;;;;;;;10.63;100.00;96119.31;5125031;28;20010;-64
2023/03/14 07:19:29;;;;;;;;;;;;;;;10.64;100.00;96131.56;5125257;28;19959;-64
2023/03/14 07:21:55;;;;;;;;;;;;;;;10.73;100.00;96130.53;5113256;28;19931;-63
2023/03/14 07:24:22;;;;;;;;;;;;;;;10.67;100.00;96128.28;5113094;28;19930;-64
2023/03/14 07:26:48;;;;;;;;;;;;;;;10.67;100.00;96139.75;5113000;28;19940;-64
2023/03/14 07:29:15;;;;;;;;;;;;;;;10.66;100.00;96140.84;5113053;28;19935;-64
2023/03/14 07:31:41;;;;;;;;;;;;;;;10.83;100.00;96148.91;5135284;27;19958;-64
2023/03/14 07:34:07;;;;;;;;;;;;;;;10.75;100.00;96148.88;5102914;28;19963;-64
2023/03/14 07:36:35;;;;;;;;;;;;;;;10.72;100.00;96158.28;5121818;28;19966;-64
2023/03/14 07:39:02;;;;;;;;;;;;;;;10.89;100.00;96164.81;5106842;28;19958;-64
2023/03/14 07:41:28;;;;;;;;;;;;;;;10.95;100.00;96159.06;5124614;28;19963;-64
2023/03/14 07:43:54;;;;;;;;;;;;;;;10.90;100.00;96156.50;5121371;28;20023;-64
2023/03/14 07:46:20;;;;;;;;;;;;;;;10.80;100.00;96168.22;5121181;28;19983;-63
2023/03/14 07:48:47;;;;;;;;;;;;;;;10.73;100.00;96173.22;5124033;28;19955;-63
2023/03/14 07:51:13;;;;;;;;;;;;;;;10.59;100.00;96171.72;5124751;28;20699;-63
2023/03/14 07:53:42;;;;;;;;;;;;;;;10.63;100.00;96181.50;5123004;28;19949;-64
2023/03/14 07:56:09;;;;;;;;;;;;;;;10.62;100.00;96179.91;5120017;28;19979;-64
2023/03/14 07:58:36;;;;;;;;;;;;;;;10.55;100.00;96179.53;5122094;28;19955;-64
2023/03/14 08:01:03;;;;;;;;;;;;;;;10.66;100.00;96183.53;5119895;28;19966;-64
2023/03/14 08:03:29;;;;;;;;;;;;;;;10.78;100.00;96196.34;5124136;28;19924;-64
2023/03/14 08:05:55;;;;;;;;;;;;;;;10.71;100.00;96191.41;5120628;28;19960;-64
2023/03/14 08:08:22;;;;;;;;;;;;;;;10.75;100.00;96192.41;5120713;28;19952;-64
2023/03/14 08:10:49;;;;;;;;;;;;;;;10.71;100.00;96193.28;5123372;28;20027;-64
2023/03/14 08:13:16;;;;;;;;;;;;;;;10.68;100.00;96183.22;5123885;28;19955;-64
2023/03/14 08:15:42;;;;;;;;;;;;;;;10.63;100.00;96178.81;5122088;28;19955;-64
2023/03/14 08:18:09;;;;;;;;;;;;;;;10.68;100.00;96169.88;5120396;28;19962;-63
2023/03/14 08:20:36;;;;;;;;;;;;;;;10.71;100.00;96169.28;5121433;28;19990;-63
2023/03/14 08:23:02;;;;;;;;;;;;;;;10.79;100.00;96166.66;5105537;28;19976;-63
2023/03/14 08:25:29;;;;;;;;;;;;;;;10.82;100.00;96170.59;5123636;28;19959;-63
2023/03/14 08:27:57;;;;;;;;;;;;;;;10.74;100.00;96172.13;5120074;28;19960;-63
2023/03/14 08:30:23;;;;;;;;;;;;;;;10.74;100.00;96172.13;5132746;27;19923;-63
2023/03/14 08:32:50;;;;;;;;;;;;;;;10.60;100.00;96158.06;5105928;28;19970;-63
2023/03/14 08:35:16;;;;;;;;;;;;;;;10.68;100.00;96162.66;5123594;28;19924;-64
2023/03/14 08:37:42;;;;;;;;;;;;;;;10.68;100.00;96160.00;5121550;28;19928;-64
2023/03/14 08:40:09;;;;;;;;;;;;;;;10.76;100.00;96155.81;5120331;28;19983;-63
2023/03/14 08:42:36;;;;;;;;;;;;;;;10.93;100.00;96152.41;5102920;28;19946;-65
2023/03/14 08:45:04;;;;;;;;;;;;;;;10.76;100.00;96151.25;5123628;28;19923;-65
2023/03/14 08:47:31;;;;;;;;;;;;;;;10.73;100.00;96145.75;5123041;28;19938;-65
2023/03/14 08:49:57;;;;;;;;;;;;;;;10.79;100.00;96142.63;5119902;28;19959;-64
2023/03/14 08:52:23;;;;;;;;;;;;;;;10.67;100.00;96136.28;5119874;28;19952;-64
2023/03/14 08:54:50;;;;;;;;;;;;;;;10.76;100.00;96140.59;5122729;28;19983;-64
2023/03/14 08:57:16;;;;;;;;;;;;;;;10.88;100.00;96141.88;5122983;28;20014;-64
2023/03/14 08:59:43;;;;;;;;;;;;;;;10.87;100.00;96132.28;5122476;27;19963;-64
2023/03/14 09:02:11;;;;;;;;;;;;;;;10.93;100.00;96139.06;5132185;27;19951;-64
2023/03/14 09:04:37;;;;;;;;;;;;;;;10.86;100.00;96138.75;5120997;28;20444;-63
2023/03/14 09:07:04;;;;;;;;;;;;;;;10.81;100.00;96135.09;5122966;28;19928;-64
2023/03/14 09:09:30;;;;;;;;;;;;;;;10.86;100.00;96133.41;5122584;28;19923;-64
2023/03/14 09:11:57;;;;;;;;;;;;;;;10.88;100.00;96136.53;5119737;28;19971;-64
2023/03/14 09:14:24;;;;;;;;;;;;;;;10.96;100.00;96138.44;5119486;28;20094;-64
2023/03/14 09:16:50;;;;;;;;;;;;;;;10.87;100.00;96141.09;5122544;28;19923;-64
2023/03/14 09:19:18;;;;;;;;;;;;;;;10.88;100.00;96132.00;5122967;28;19923;-64
2023/03/14 09:21:44;;;;;;;;;;;;;;;10.90;100.00;96132.47;5120576;28;20395;-65
2023/03/14 09:24:11;;;;;;;;;;;;;;;10.94;100.00;96133.44;5119238;28;19956;-65
2023/03/14 09:26:37;;;;;;;;;;;;;;;10.96;100.00;96138.44;5120412;28;19939;-64
2023/03/14 09:29:04;;;;;;;;;;;;;;;10.97;100.00;96143.50;5122593;28;19926;-64
2023/03/14 09:31:30;;;;;;;;;;;;;;;10.99;100.00;96143.19;5136446;27;20006;-64
2023/03/14 09:33:56;;;;;;;;;;;;;;;11.05;100.00;96152.66;5118930;28;19979;-64
2023/03/14 09:36:24;;;;;;;;;;;;;;;11.07;100.00;96159.25;5119137;28;19924;-64
2023/03/14 09:38:50;;;;;;;;;;;;;;;11.02;100.00;96163.94;5122198;28;19924;-65
2023/03/14 09:41:18;;;;;;;;;;;;;;;11.03;100.00;96150.28;5122343;28;19951;-65
2023/03/14 09:43:47;;;;;;;;;;;;;;;11.07;100.00;96150.47;5120137;28;19991;-65
2023/03/14 09:46:14;;;;;;;;;;;;;;;11.07;100.00;96137.88;5118871;28;20023;-65
2023/03/14 09:48:41;;;;;;;;;;;;;;;11.14;100.00;96137.44;5120510;28;19924;-64
2023/03/14 09:51:13;;;;;;;;;;;;;;;11.21;100.00;96143.09;5122237;28;19955;-64
2023/03/14 09:53:42;;;;;;;;;;;;;;;11.24;100.00;96142.50;5120840;28;19971;-64
2023/03/14 09:56:12;;;;;;;;;;;;;;;11.27;100.00;96131.97;5118884;28;19936;-64
2023/03/14 09:58:41;;;;;;;;;;;;;;;11.23;100.00;96138.25;5102175;28;19980;-64
2023/03/14 10:01:10;;;;;;;;;;;;;;;11.27;100.00;96137.31;5136484;27;19930;-64
2023/03/14 10:03:36;;;;;;;;;;;;;;;11.31;100.00;96130.25;5121073;28;20400;-64
2023/03/14 10:06:10;;;;;;;;;;;;;;;11.30;100.00;96122.53;5100542;28;19975;-64
2023/03/14 10:08:36;;;;;;;;;;;;;;;11.34;100.00;96113.63;5119842;28;20525;-64
2023/03/14 10:11:04;;;;;;;;;;;;;;;11.30;100.00;96117.19;5104055;28;19945;-64
2023/03/14 10:13:30;;;;;;;;;;;;;;;11.39;100.00;96113.44;5121854;28;19924;-64
2023/03/14 10:16:00;;;;;;;;;;;;;;;11.49;100.00;96104.34;5118572;28;19924;-64
2023/03/14 10:18:29;;;;;;;;;;;;;;;11.50;100.00;96102.47;5118149;28;19924;-64
2023/03/14 10:21:02;;;;;;;;;;;;;;;11.53;100.00;96105.31;5118668;28;19928;-64
2023/03/14 10:23:31;;;;;;;;;;;;;;;11.65;100.00;96099.34;5118627;28;19924;-65
2023/03/14 10:26:03;;;;;;;;;;;;;;;11.68;100.00;96096.03;5121975;28;19959;-65
2023/03/14 10:28:33;;;;;;;;;;;;;;;11.81;100.00;96087.13;5103634;28;19990;-65
2023/03/14 10:30:59;;;;;;;;;;;;;;;11.97;100.00;96082.09;5129770;27;19950;-64
2023/03/14 10:33:27;;;;;;;;;;;;;;;12.07;100.00;96084.44;5121963;28;20015;-64
2023/03/14 10:35:54;;;;;;;;;;;;;;;12.23;100.00;96080.94;5118449;28;19920;-64
2023/03/14 10:38:23;;;;;;;;;;;;;;;12.39;100.00;96075.88;5118443;28;19928;-65
2023/03/14 10:40:52;;;;;;;;;;;;;;;12.59;100.00;96079.78;5121346;28;19924;-64
2023/03/14 10:43:21;;;;;;;;;;;;;;;12.30;100.00;96080.47;5121920;28;19959;-64
2023/03/14 10:45:57;;;;;;;;;;;;;;;12.37;100.00;96075.44;5119221;28;19930;-64
2023/03/14 10:48:25;;;;;;;;;;;;;;;12.34;100.00;96082.22;5118513;28;19949;-64
2023/03/14 10:50:56;;;;;;;;;;;;;;;12.35;100.00;96072.25;5121652;28;20111;-64
2023/03/14 10:53:22;;;;;;;;;;;;;;;12.35;100.00;96077.63;5121998;28;19991;-64
2023/03/14 10:55:49;;;;;;;;;;;;;;;12.27;100.00;96081.91;5119125;28;19963;-64
2023/03/14 10:58:25;;;;;;;;;;;;;;;12.37;100.00;96080.78;5118054;28;19936;-64
2023/03/14 11:01:01;;;;;;;;;;;;;;;12.31;100.00;96082.06;5135591;28;19923;-64
2023/03/14 11:03:29;;;;;;;;;;;;;;;12.33;100.00;96090.53;5121690;28;19976;-64
2023/03/14 11:05:57;;;;;;;;;;;;;;;12.27;100.00;96081.09;5118067;28;19979;-64
2023/03/14 11:08:25;;;;;;;;;;;;;;;12.28;100.00;96088.03;5118100;28;20401;-64
2023/03/14 11:10:55;;;;;;;;;;;;;;;12.37;100.00;96091.50;5121155;28;19966;-64
2023/03/14 11:13:25;;;;;;;;;;;;;;;12.24;100.00;96076.38;5121718;28;19958;-64
2023/03/14 11:15:55;;;;;;;;;;;;;;;12.17;100.00;96076.06;5118425;28;19924;-65
2023/03/14 11:18:42;;;;;;;;;;;;;;;12.22;100.00;96092.00;5118022;28;19924;-65
2023/03/14 11:21:13;;;;;;;;;;;;;;;12.15;100.00;96089.78;5106134;28;19960;-64
2023/03/14 11:23:46;;;;;;;;;;;;;;;12.23;100.00;96088.19;5101359;28;19931;-64
2023/03/14 11:26:19;;;;;;;;;;;;;;;12.27;100.00;96097.16;5121588;28;19923;-64
2023/03/14 11:28:49;;;;;;;;;;;;;;;12.27;100.00;96081.09;5100956;28;19931;-65
2023/03/14 11:31:19;;;;;;;;;;;;;;;12.18;100.00;96085.69;5114455;28;19962;-65
2023/03/14 11:33:48;;;;;;;;;;;;;;;12.16;100.00;96088.66;5122473;28;19930;-65
2023/03/14 11:36:19;;;;;;;;;;;;;;;12.14;100.00;96082.06;5121583;28;19954;-65
2023/03/14 11:38:48;;;;;;;;;;;;;;;12.18;100.00;96077.66;5123805;28;19973;-65
2023/03/14 11:41:16;;;;;;;;;;;;;;;12.18;100.00;96088.38;5106478;28;19966;-65
2023/03/14 11:43:47;;;;;;;;;;;;;;;12.18;100.00;96074.97;5104314;28;19935;-65
2023/03/14 11:46:17;;;;;;;;;;;;;;;12.16;100.00;96069.94;5121180;28;20002;-65
2023/03/14 11:48:46;;;;;;;;;;;;;;;12.16;100.00;96069.94;5123216;28;19935;-65
2023/03/14 11:51:18;;;;;;;;;;;;;;;12.27;100.00;96076.53;5124523;28;19937;-65
2023/03/14 11:53:49;;;;;;;;;;;;;;;12.25;100.00;96061.91;5122253;28;20105;-65
2023/03/14 11:56:19;;;;;;;;;;;;;;;12.29;100.00;96057.47;5121088;28;19946;-65
2023/03/14 11:58:49;;;;;;;;;;;;;;;12.28;100.00;96054.03;5123409;28;19982;-65
2023/03/14 12:01:21;;;;;;;;;;;;;;;12.28;100.00;96050.56;5138927;27;19955;-65
2023/03/14 12:03:52;;;;;;;;;;;;;;;12.32;100.00;96051.47;5103916;28;19988;-65
2023/03/14 12:06:23;;;;;;;;;;;;;;;12.40;100.00;96048.81;5120898;28;19920;-65
2023/03/14 12:08:50;;;;;;;;;;;;;;;12.43;100.00;96050.06;5123910;28;19927;-65
2023/03/14 12:11:20;;;;;;;;;;;;;;;12.50;100.00;96041.53;5106171;28;19974;-65
2023/03/14 12:13:48;;;;;;;;;;;;;;;12.60;100.00;96041.97;5103628;28;19955;-65
2023/03/14 12:16:24;;;;;;;;;;;;;;;12.64;100.00;96034.88;5120876;28;19935;-65
2023/03/14 12:18:52;;;;;;;;;;;;;;;12.64;100.00;96028.72;5123741;28;19958;-65
2023/03/14 12:21:20;;;;;;;;;;;;;;;12.71;100.00;96015.63;5123918;28;19986;-65
2023/03/14 12:23:50;;;;;;;;;;;;;;;12.60;100.00;96023.22;5121600;28;19966;-65
2023/03/14 12:26:17;;;;;;;;;;;;;;;12.66;100.00;96016.56;5120412;28;19924;-65
2023/03/14 12:28:45;;;;;;;;;;;;;;;12.65;100.00;96024.94;5122490;28;19925;-65
2023/03/14 12:31:30;;;;;;;;;;;;;;;12.67;100.00;96012.78;5138055;27;19956;-65
2023/03/14 12:34:03;;;;;;;;;;;;;;;12.55;100.00;96010.00;5120167;28;19979;-65
2023/03/14 12:42:14;;;;;;;;;;;;;;;12.58;100.00;96003.22;5142166;27;20020;-65